Time;durP1;ratioP1;P1;durP2;ratioP2;P2;SDS_P1;SDS_P2;PMS_P1;PMS_P2;Temp;Humidity;BMP_temperature;BMP_pressure;BME280_temperature;BME280_humidity;BME280_pressure;Samples;Min_cycle;Max_cycle;Signal;HPM_P1;HPM_P2
2023/01/18 05:09:24;;;;;;;1.00;0.90;;;2.10;84.80;;;;;;5052202;23;20724;-84
2023/01/18 05:11:51;;;;;;;2.03;1.03;;;2.20;83.40;;;;;;5054286;28;20182;-84
2023/01/18 05:17:51;;;;;;;2.87;1.00;;;2.40;80.50;;;;;;5052853;28;20634;-85
2023/01/18 05:36:35;;;;;;;2.30;1.20;;;2.50;80.10;;;;;;4994398;28;20223;-85
2023/01/18 05:39:34;;;;;;;1.83;1.20;;;2.50;80.00;;;;;;5000346;28;20660;-86
2023/01/18 05:42:01;;;;;;;1.83;1.20;;;2.50;80.00;;;;;;4997118;28;20270;-86
2023/01/18 05:44:27;;;;;;;2.17;1.40;;;2.50;80.50;;;;;;4982728;28;20566;-88
2023/01/18 05:46:54;;;;;;;2.10;1.30;;;2.50;80.40;;;;;;4992086;28;20228;-86
2023/01/18 05:49:21;;;;;;;3.17;1.53;;;2.50;80.10;;;;;;4993491;28;20239;-86
2023/01/18 05:51:50;;;;;;;1.23;1.13;;;2.50;79.40;;;;;;4993739;28;20196;-86
2023/01/18 05:54:18;;;;;;;2.17;1.57;;;2.50;79.40;;;;;;4981123;28;20236;-87
2023/01/18 05:56:47;;;;;;;2.03;1.47;;;2.50;79.80;;;;;;4991616;28;20215;-86
2023/01/18 05:59:14;;;;;;;1.83;1.40;;;2.50;79.50;;;;;;4997369;28;20204;-87
2023/01/18 06:01:41;;;;;;;1.73;1.37;;;2.50;78.90;;;;;;4991811;28;20223;-87
2023/01/18 06:04:08;;;;;;;1.83;1.53;;;2.60;79.30;;;;;;4996236;28;20200;-87
2023/01/18 06:06:35;;;;;;;2.87;1.60;;;2.60;79.00;;;;;;4995757;28;20211;-89
2023/01/18 06:09:03;;;;;;;2.00;1.50;;;2.60;79.00;;;;;;5001451;28;20226;-87
2023/01/18 06:11:30;;;;;;;2.43;1.70;;;2.60;78.50;;;;;;4995119;28;20204;-85
2023/01/18 06:13:58;;;;;;;2.70;1.70;;;2.60;78.50;;;;;;5006077;28;20706;-88
2023/01/18 06:16:25;;;;;;;1.90;1.70;;;2.60;78.70;;;;;;5006823;28;20184;-86
2023/01/18 06:18:52;;;;;;;4.37;2.43;;;2.60;79.20;;;;;;5005997;28;20203;-89
2023/01/18 06:21:19;;;;;;;3.23;1.83;;;2.60;79.80;;;;;;5017021;28;20200;-88
2023/01/18 06:23:46;;;;;;;2.13;1.87;;;2.60;78.20;;;;;;5005850;28;20232;-89
2023/01/18 06:26:14;;;;;;;2.60;1.90;;;2.60;79.90;;;;;;4988329;28;20216;-90
2023/01/18 06:28:41;;;;;;;3.33;2.00;;;2.60;78.60;;;;;;4988037;28;20204;-89
2023/01/18 06:31:10;;;;;;;2.33;1.60;;;2.70;78.70;;;;;;4995650;28;20622;-87
2023/01/18 06:33:37;;;;;;;3.50;1.60;;;2.70;79.50;;;;;;4986046;28;20536;-87
2023/01/18 06:36:04;;;;;;;2.50;1.77;;;2.60;79.00;;;;;;4994821;28;20250;-88
2023/01/18 06:38:33;;;;;;;3.80;2.07;;;2.60;79.30;;;;;;4987031;28;20291;-90
2023/01/18 06:41:00;;;;;;;1.90;1.70;;;2.50;79.80;;;;;;4986783;28;20216;-87
2023/01/18 06:43:28;;;;;;;2.60;1.70;;;2.50;79.60;;;;;;4994776;28;20192;-90
2023/01/18 06:45:56;;;;;;;2.27;1.70;;;2.50;79.20;;;;;;4982168;28;20614;-88
2023/01/18 06:48:23;;;;;;;3.50;1.60;;;2.40;79.70;;;;;;4979882;28;20546;-89
2023/01/18 06:50:53;;;;;;;2.70;1.73;;;2.30;81.20;;;;;;4983582;28;20261;-86
2023/01/18 06:53:20;;;;;;;4.23;2.03;;;2.20;81.90;;;;;;4984995;28;20220;-88
2023/01/18 06:55:55;;;;;;;1.93;1.73;;;2.20;81.60;;;;;;4984242;28;20224;-89
2023/01/18 06:58:25;;;;;;;2.60;1.80;;;2.10;83.00;;;;;;4984339;28;20283;-87
2023/01/18 07:00:55;;;;;;;3.60;1.97;;;2.10;83.50;;;;;;4985132;28;20201;-88
2023/01/18 07:03:23;;;;;;;4.87;1.57;;;2.10;82.40;;;;;;4989911;28;20201;-86
2023/01/18 07:05:50;;;;;;;2.47;1.80;;;2.20;81.40;;;;;;4987548;28;20200;-86
2023/01/18 07:08:19;;;;;;;3.23;1.67;;;2.30;80.30;;;;;;4988889;28;20223;-86
2023/01/18 07:10:46;;;;;;;4.07;1.37;;;2.30;81.00;;;;;;4990420;28;20258;-86
2023/01/18 07:13:13;;;;;;;2.03;1.50;;;2.30;80.80;;;;;;4988087;28;20201;-88
2023/01/18 07:15:41;;;;;;;2.00;1.40;;;2.30;80.60;;;;;;4992335;28;20232;-87
2023/01/18 07:18:09;;;;;;;2.20;1.57;;;2.40;79.50;;;;;;4976039;28;20295;-86
2023/01/18 07:20:41;;;;;;;5.33;1.50;;;2.50;78.90;;;;;;4974254;28;20204;-86
2023/01/18 07:23:08;;;;;;;1.40;1.30;;;2.50;78.60;;;;;;4993184;28;20235;-86
2023/01/18 07:25:35;;;;;;;3.30;1.60;;;2.60;79.00;;;;;;4993453;28;20220;-86
2023/01/18 07:28:03;;;;;;;2.23;1.30;;;2.50;80.10;;;;;;4979966;28;20204;-86
2023/01/18 07:30:30;;;;;;;1.90;1.50;;;2.50;79.80;;;;;;4988860;28;20723;-87
2023/01/18 07:32:57;;;;;;;2.90;1.40;;;2.60;79.00;;;;;;4994377;28;20200;-86
2023/01/18 07:35:26;;;;;;;2.50;1.57;;;2.60;78.50;;;;;;4990740;28;20235;-89
2023/01/18 07:37:53;;;;;;;5.27;1.40;;;2.60;79.50;;;;;;4983739;28;20207;-86
2023/01/18 07:40:20;;;;;;;1.40;1.30;;;2.70;78.50;;;;;;4993008;28;20717;-87
2023/01/18 07:42:47;;;;;;;1.80;1.50;;;2.70;79.10;;;;;;4986963;28;20207;-86
2023/01/18 07:45:14;;;;;;;1.43;1.20;;;2.70;77.60;;;;;;4984113;28;20631;-89
2023/01/18 07:47:42;;;;;;;2.40;1.37;;;2.80;77.40;;;;;;4977643;28;20680;-86
2023/01/18 07:50:10;;;;;;;3.17;1.20;;;2.80;77.90;;;;;;4972718;28;20205;-86
2023/01/18 07:52:38;;;;;;;2.10;1.30;;;2.90;77.10;;;;;;4984870;28;20305;-86
2023/01/18 07:55:06;;;;;;;4.53;1.40;;;2.90;77.30;;;;;;4984746;28;20243;-87
2023/01/18 07:57:33;;;;;;;1.30;1.20;;;3.00;76.00;;;;;;4993776;28;20200;-87
2023/01/18 07:59:59;;;;;;;3.90;1.30;;;3.10;77.00;;;;;;4985633;28;20208;-86
2023/01/18 08:02:27;;;;;;;3.60;1.27;;;3.10;76.10;;;;;;4994651;28;20204;-86
2023/01/18 08:04:53;;;;;;;3.47;1.40;;;3.20;76.70;;;;;;4987304;28;20574;-86
2023/01/18 08:07:20;;;;;;;2.90;1.27;;;3.30;76.20;;;;;;4985858;28;20215;-88
2023/01/18 08:09:48;;;;;;;1.80;1.30;;;3.40;74.90;;;;;;4985234;28;20594;-86
2023/01/18 08:12:17;;;;;;;1.47;1.10;;;3.50;74.40;;;;;;4992455;28;20207;-86
2023/01/18 08:14:44;;;;;;;1.93;1.20;;;3.60;75.00;;;;;;4981760;28;20226;-86
2023/01/18 08:17:11;;;;;;;1.87;1.30;;;3.70;74.00;;;;;;4984697;28;20204;-87
2023/01/18 08:19:38;;;;;;;2.77;1.30;;;3.90;72.70;;;;;;4986375;28;20571;-86
2023/01/18 08:22:04;;;;;;;1.77;1.33;;;3.90;69.10;;;;;;4986119;28;20208;-87
2023/01/18 08:24:31;;;;;;;3.17;1.50;;;4.00;72.00;;;;;;4987494;28;20207;-88
2023/01/18 08:26:59;;;;;;;2.83;1.30;;;4.00;68.70;;;;;;4990582;28;20212;-88
2023/01/18 08:29:26;;;;;;;2.67;1.30;;;4.00;68.70;;;;;;4987941;28;20209;-88
2023/01/18 08:31:53;;;;;;;1.87;1.30;;;4.00;68.70;;;;;;4986868;28;20233;-88
2023/01/18 08:34:20;;;;;;;1.63;1.00;;;4.10;68.80;;;;;;4986635;28;20295;-86
2023/01/18 08:36:49;;;;;;;1.30;1.20;;;4.00;68.70;;;;;;4982395;28;20256;-88
2023/01/18 08:39:16;;;;;;;3.13;1.23;;;3.90;68.60;;;;;;4993184;28;20613;-87
2023/01/18 08:41:45;;;;;;;2.17;1.47;;;3.90;68.60;;;;;;4983807;28;20653;-88
2023/01/18 08:44:13;;;;;;;1.70;1.30;;;3.90;68.60;;;;;;4993199;28;20211;-87
2023/01/18 08:46:40;;;;;;;3.03;1.20;;;3.90;68.60;;;;;;4992829;28;20211;-87
2023/01/18 08:49:07;;;;;;;0.87;0.83;;;4.00;67.20;;;;;;4984417;28;20204;-88
2023/01/18 08:51:33;;;;;;;1.23;1.10;;;4.10;63.80;;;;;;4986067;28;20234;-87
2023/01/18 08:54:00;;;;;;;2.90;1.13;;;4.20;63.80;;;;;;4986484;28;20568;-87
2023/01/18 08:56:28;;;;;;;0.97;0.90;;;4.20;65.60;;;;;;4985931;28;20227;-86
2023/01/18 08:58:56;;;;;;;1.73;1.20;;;4.40;62.90;;;;;;4989279;28;20551;-87
2023/01/18 09:01:24;;;;;;;1.70;1.20;;;4.60;59.40;;;;;;4993587;28;20200;-87
2023/01/18 09:03:54;;;;;;;1.10;1.00;;;4.90;61.60;;;;;;4994478;28;20239;-89
2023/01/18 09:06:21;;;;;;;1.87;1.20;;;5.10;56.00;;;;;;4989004;28;20669;-87
2023/01/18 09:08:49;;;;;;;3.70;1.23;;;5.20;51.90;;;;;;4982051;28;20568;-87
2023/01/18 09:11:17;;;;;;;3.77;1.30;;;5.10;51.60;;;;;;4994068;28;20211;-87
2023/01/18 09:13:44;;;;;;;2.80;1.30;;;5.00;51.10;;;;;;4981904;28;20233;-91
2023/01/18 09:16:11;;;;;;;3.33;1.23;;;5.00;53.10;;;;;;4988916;28;20227;-87
2023/01/18 09:18:39;;;;;;;2.57;1.00;;;4.90;53.60;;;;;;4993726;28;20207;-87
2023/01/18 09:21:07;;;;;;;1.17;1.00;;;4.70;51.90;;;;;;4990548;28;20204;-87
2023/01/18 09:23:34;;;;;;;1.20;1.10;;;4.80;52.80;;;;;;4993938;28;20224;-87
2023/01/18 09:26:02;;;;;;;1.80;1.30;;;4.60;54.40;;;;;;4992287;28;20550;-87
2023/01/18 09:28:29;;;;;;;3.10;1.20;;;4.60;54.80;;;;;;4992775;28;20219;-87
2023/01/18 09:30:59;;;;;;;1.93;1.20;;;4.90;55.40;;;;;;4975026;28;20200;-89
2023/01/18 09:33:26;;;;;;;3.47;1.10;;;5.70;53.70;;;;;;4977621;28;20197;-89
2023/01/18 10:06:09;;;;;;;2.15;1.25;;;6.50;34.20;;;;;;4964838;28;20247;-89
2023/01/18 10:08:45;;;;;;;1.33;1.10;;;5.90;39.40;;;;;;4978571;28;20608;-89
2023/01/18 10:14:38;;;;;;;3.97;1.20;;;6.10;38.30;;;;;;4938423;28;20198;-89
2023/01/18 10:20:38;;;;;;;2.73;1.20;;;5.90;45.00;;;;;;4937536;29;20618;-87
2023/01/18 10:23:14;;;;;;;2.23;1.33;;;5.60;47.10;;;;;;4957644;28;20224;-87
2023/01/18 10:25:46;;;;;;;2.90;1.37;;;5.30;50.20;;;;;;4977648;28;20216;-87
2023/01/18 10:28:25;;;;;;;1.10;1.00;;;5.20;51.50;;;;;;4971104;28;20193;-87
2023/01/18 10:31:09;;;;;;;3.20;1.20;;;5.20;51.70;;;;;;4978060;28;20193;-87
2023/01/18 10:33:40;;;;;;;1.37;1.10;;;5.20;50.30;;;;;;4986965;28;20214;-87
2023/01/18 10:36:14;;;;;;;1.30;1.20;;;5.10;52.50;;;;;;4984069;28;20244;-87
2023/01/18 10:38:41;;;;;;;6.30;1.10;;;4.80;53.40;;;;;;4996909;28;20200;-88
2023/01/18 10:41:19;;;;;;;2.23;1.20;;;4.80;55.90;;;;;;4996744;28;20214;-87
2023/01/18 10:43:45;;;;;;;1.60;1.03;;;4.80;55.70;;;;;;4996217;28;20188;-87
2023/01/18 10:46:27;;;;;;;1.23;1.10;;;5.10;55.40;;;;;;4996744;28;20637;-87
2023/01/18 10:48:57;;;;;;;1.00;1.00;;;5.30;52.70;;;;;;4978731;28;20210;-88
2023/01/18 10:51:28;;;;;;;1.30;0.97;;;5.40;53.30;;;;;;4978228;28;20196;-89
2023/01/18 10:53:56;;;;;;;1.33;1.23;;;5.40;47.30;;;;;;4978213;28;20196;-87
2023/01/18 10:56:26;;;;;;;1.30;1.13;;;5.40;51.30;;;;;;4977548;28;20259;-87
2023/01/18 10:58:57;;;;;;;1.30;1.20;;;5.40;51.90;;;;;;4977912;28;20560;-87
2023/01/18 11:02:06;;;;;;;1.17;1.08;;;5.50;52.00;;;;;;4978394;28;20626;-89
2023/01/18 11:04:34;;;;;;;1.63;1.23;;;5.90;47.50;;;;;;4977825;28;20235;-89
2023/01/18 11:07:03;;;;;;;0.93;0.93;;;5.90;45.10;;;;;;4977660;28;20228;-89
2023/01/18 11:09:42;;;;;;;1.10;1.00;;;5.50;46.60;;;;;;4977553;28;20199;-87
2023/01/18 11:12:40;;;;;;;1.20;1.10;;;5.00;48.20;;;;;;4977130;28;20193;-87
2023/01/18 11:15:31;;;;;;;1.77;1.10;;;4.70;50.80;;;;;;4985774;28;20232;-86
2023/01/18 11:18:05;;;;;;;3.03;1.00;;;4.60;54.90;;;;;;4974972;28;20338;-86
2023/01/18 11:20:36;;;;;;;2.13;1.10;;;4.50;54.00;;;;;;4999377;28;20204;-87
2023/01/18 11:23:07;;;;;;;2.97;1.10;;;4.50;54.70;;;;;;4992343;28;20231;-87
2023/01/18 11:25:39;;;;;;;2.30;1.10;;;4.40;54.30;;;;;;4977234;28;20637;-89
2023/01/18 11:28:18;;;;;;;1.10;1.00;;;4.40;52.30;;;;;;4983151;28;20208;-87
2023/01/18 11:30:52;;;;;;;2.63;1.30;;;4.40;54.10;;;;;;4981545;28;20223;-89
2023/01/18 11:33:21;;;;;;;1.47;1.20;;;4.40;54.80;;;;;;4983000;28;20204;-87
2023/01/18 11:35:53;;;;;;;1.27;1.00;;;4.40;53.30;;;;;;4994721;28;20311;-87
2023/01/18 11:38:20;;;;;;;1.10;1.00;;;4.50;55.20;;;;;;4995793;28;20262;-86
2023/01/18 11:40:47;;;;;;;1.43;1.33;;;4.50;54.70;;;;;;4987226;28;20224;-87
2023/01/18 11:43:18;;;;;;;1.40;1.30;;;4.50;54.50;;;;;;4988046;28;20210;-88
2023/01/18 11:45:49;;;;;;;2.17;1.37;;;4.50;55.30;;;;;;4986875;28;20204;-89
2023/01/18 11:48:27;;;;;;;4.37;1.60;;;4.50;57.20;;;;;;4987466;28;20200;-87
2023/01/18 11:50:57;;;;;;;1.60;1.50;;;4.40;56.10;;;;;;4990685;28;20192;-88
2023/01/18 11:53:40;;;;;;;3.13;1.40;;;4.30;56.80;;;;;;4987759;28;20200;-87
2023/01/18 11:56:11;;;;;;;1.37;1.27;;;4.20;57.40;;;;;;4991680;28;20322;-87
2023/01/18 11:58:40;;;;;;;1.87;1.67;;;4.10;57.50;;;;;;4986143;28;20197;-87
2023/01/18 12:01:49;;;;;;;3.77;1.80;;;4.00;58.30;;;;;;4989334;28;20211;-87
2023/01/18 12:04:25;;;;;;;2.13;1.60;;;4.00;58.90;;;;;;4989245;28;20243;-87
2023/01/18 12:07:02;;;;;;;3.20;1.60;;;4.00;58.40;;;;;;4980320;28;20208;-87
2023/01/18 12:09:38;;;;;;;2.50;1.70;;;4.10;58.80;;;;;;4990803;28;20288;-87
2023/01/18 12:12:25;;;;;;;2.40;1.50;;;4.20;57.80;;;;;;4989462;28;20200;-87
2023/01/18 12:15:09;;;;;;;3.30;1.97;;;4.20;58.20;;;;;;4982136;28;20196;-87
2023/01/18 12:17:52;;;;;;;1.70;1.60;;;4.40;57.30;;;;;;4989182;28;20204;-87
2023/01/18 12:20:26;;;;;;;1.60;1.47;;;4.50;53.30;;;;;;4990701;28;20204;-88
2023/01/18 12:23:16;;;;;;;1.83;1.40;;;4.40;52.00;;;;;;4974028;28;20224;-87
2023/01/18 12:25:57;;;;;;;1.37;1.20;;;4.20;53.60;;;;;;4990861;28;20207;-87
2023/01/18 12:28:36;;;;;;;3.53;1.50;;;4.20;55.00;;;;;;4991069;28;20196;-87
2023/01/18 12:31:20;;;;;;;2.50;1.43;;;4.20;53.20;;;;;;4978032;28;20691;-88
2023/01/18 12:33:57;;;;;;;1.30;1.20;;;4.30;52.50;;;;;;4989598;28;20208;-88
2023/01/18 12:36:48;;;;;;;2.57;1.73;;;4.30;49.60;;;;;;4990364;28;20687;-87
2023/01/18 12:39:32;;;;;;;1.30;1.20;;;4.30;49.50;;;;;;4990718;28;20280;-87
2023/01/18 12:42:04;;;;;;;1.33;1.23;;;4.20;48.60;;;;;;4986418;28;20207;-88
2023/01/18 12:44:45;;;;;;;1.50;1.30;;;4.00;49.90;;;;;;4994454;28;20196;-88
2023/01/18 12:50:36;;;;;;;2.33;1.53;;;4.00;50.20;;;;;;4971394;28;20251;-88
2023/01/18 12:53:10;;;;;;;1.40;1.30;;;4.20;50.40;;;;;;4992238;28;20204;-89
2023/01/18 12:55:40;;;;;;;2.50;1.43;;;4.10;48.70;;;;;;5001169;28;20219;-89
2023/01/18 12:58:10;;;;;;;1.63;1.53;;;3.90;51.30;;;;;;4994803;28;20211;-88
2023/01/18 13:00:40;;;;;;;3.30;1.67;;;4.00;52.40;;;;;;4987680;28;20212;-88
2023/01/18 13:03:12;;;;;;;1.90;1.80;;;4.10;52.80;;;;;;4984841;28;20234;-89
2023/01/18 13:05:55;;;;;;;3.47;1.53;;;4.20;51.70;;;;;;4983029;28;20654;-88
2023/01/18 13:08:33;;;;;;;5.40;2.10;;;4.30;53.50;;;;;;4982276;28;20667;-88
2023/01/18 13:11:07;;;;;;;2.67;1.97;;;4.30;56.60;;;;;;4986290;28;20639;-88
2023/01/18 13:13:35;;;;;;;6.97;1.80;;;4.40;56.20;;;;;;4990611;28;20544;-89
2023/01/18 13:16:11;;;;;;;2.23;2.00;;;4.20;59.10;;;;;;4993323;28;20232;-88
2023/01/18 13:18:47;;;;;;;3.23;1.97;;;4.10;57.80;;;;;;4992769;28;20203;-87
2023/01/18 13:21:24;;;;;;;1.87;1.70;;;3.90;56.60;;;;;;4979431;28;20196;-88
2023/01/18 13:23:58;;;;;;;4.07;2.30;;;3.60;57.50;;;;;;4991531;28;20219;-88
2023/01/18 13:26:28;;;;;;;2.50;2.20;;;3.30;59.60;;;;;;4989422;28;20198;-85
2023/01/18 13:29:16;;;;;;;2.40;2.20;;;3.20;60.00;;;;;;4985772;28;20679;-86
2023/01/18 13:31:44;;;;;;;3.40;2.27;;;3.10;63.40;;;;;;4962230;28;20263;-86
2023/01/18 13:34:28;;;;;;;2.83;2.30;;;3.20;67.60;;;;;;4987276;28;20255;-89
2023/01/18 13:36:58;;;;;;;3.30;2.60;;;3.20;65.30;;;;;;4976245;28;20770;-86
2023/01/18 13:39:26;;;;;;;4.97;2.57;;;3.10;66.10;;;;;;4981226;28;20235;-86
2023/01/18 13:42:34;;;;;;;3.23;2.67;;;3.20;67.80;;;;;;4985561;28;20212;-86
2023/01/18 13:45:15;;;;;;;3.20;2.70;;;2.90;67.20;;;;;;4981331;28;20208;-86
2023/01/18 13:47:48;;;;;;;3.73;2.60;;;2.80;67.40;;;;;;4998073;28;20204;-87
2023/01/18 13:50:46;;;;;;;2.40;2.20;;;2.60;67.20;;;;;;4996571;28;20192;-86
2023/01/18 13:53:30;;;;;;;2.70;2.50;;;2.60;67.20;;;;;;4989546;28;20286;-86
2023/01/18 13:56:22;;;;;;;3.17;2.67;;;2.50;67.10;;;;;;4977425;28;20264;-86
2023/01/18 13:58:56;;;;;;;3.17;2.50;;;2.40;67.00;;;;;;4984132;28;20796;-83
2023/01/18 14:01:33;;;;;;;3.03;2.57;;;2.30;66.90;;;;;;4968739;28;21058;-86
2023/01/18 14:04:28;;;;;;;4.03;2.87;;;2.40;67.10;;;;;;4978571;28;20315;-84
2023/01/18 14:06:58;;;;;;;5.37;2.77;;;2.40;67.20;;;;;;4967919;28;20848;-87
2023/01/18 14:09:36;;;;;;;3.17;2.80;;;2.40;67.00;;;;;;4988768;28;20207;-86
2023/01/18 14:12:05;;;;;;;3.83;2.60;;;2.40;67.00;;;;;;4985174;28;20303;-86
2023/01/18 14:14:35;;;;;;;2.90;2.60;;;2.50;67.20;;;;;;4983212;28;20573;-86
2023/01/18 14:17:13;;;;;;;3.17;2.80;;;2.50;67.10;;;;;;4980889;28;20216;-88
2023/01/18 14:20:24;;;;;;;2.80;2.47;;;2.50;67.10;;;;;;4983172;28;20287;-88
2023/01/18 14:23:19;;;;;;;4.90;3.10;;;2.40;67.00;;;;;;4909460;29;20230;-85
2023/01/18 14:26:01;;;;;;;3.47;2.77;;;2.30;66.90;;;;;;4989332;28;20219;-83
2023/01/18 14:28:34;;;;;;;4.00;3.03;;;2.30;66.90;;;;;;4990021;28;21059;-84
2023/01/18 14:31:04;;;;;;;3.30;3.00;;;2.20;66.80;;;;;;4986252;28;20200;-86
2023/01/18 14:33:35;;;;;;;3.27;2.80;;;2.10;70.80;;;;;;4989416;28;20214;-85
2023/01/18 14:36:05;;;;;;;3.00;2.70;;;2.30;69.90;;;;;;4991862;28;20279;-85
2023/01/18 14:38:35;;;;;;;2.80;2.60;;;2.30;71.40;;;;;;4968068;28;20266;-85
2023/01/18 14:41:10;;;;;;;4.00;2.87;;;2.40;69.60;;;;;;4988003;28;20734;-86
2023/01/18 14:43:41;;;;;;;4.47;2.93;;;2.40;70.30;;;;;;4969607;28;20219;-86
2023/01/18 14:46:14;;;;;;;5.77;3.13;;;2.40;70.60;;;;;;4989428;28;20222;-86
2023/01/18 14:48:47;;;;;;;4.50;2.83;;;2.40;72.00;;;;;;4986281;28;20207;-85
2023/01/18 14:51:21;;;;;;;4.23;2.90;;;2.40;70.50;;;;;;4981424;28;20214;-86
2023/01/18 14:53:51;;;;;;;3.00;2.70;;;2.40;70.70;;;;;;4987418;28;20239;-86
2023/01/18 14:56:22;;;;;;;3.57;2.80;;;2.40;70.70;;;;;;4989631;28;20232;-84
2023/01/18 14:58:57;;;;;;;5.07;2.90;;;2.40;71.40;;;;;;4992061;28;20627;-85
2023/01/18 15:01:30;;;;;;;5.37;3.03;;;2.30;71.80;;;;;;4984777;28;20648;-85
2023/01/18 15:03:58;;;;;;;3.80;3.00;;;2.20;72.10;;;;;;4990091;28;20252;-87
2023/01/18 15:06:37;;;;;;;4.37;3.20;;;2.20;72.80;;;;;;4985181;28;20203;-88
2023/01/18 15:09:08;;;;;;;3.57;3.27;;;2.10;73.80;;;;;;4980915;28;20204;-85
2023/01/18 15:11:38;;;;;;;4.70;3.60;;;2.10;75.90;;;;;;4980092;28;20573;-86
2023/01/18 15:14:10;;;;;;;4.87;3.80;;;2.20;75.70;;;;;;4982686;28;20790;-86
2023/01/18 15:16:37;;;;;;;3.93;3.53;;;2.10;74.90;;;;;;4981935;28;20296;-86
2023/01/18 15:19:03;;;;;;;3.43;3.10;;;2.10;74.20;;;;;;4985412;28;20200;-86
2023/01/18 15:21:34;;;;;;;3.57;3.13;;;2.10;74.30;;;;;;4983399;28;20209;-85
2023/01/18 15:24:05;;;;;;;4.73;3.40;;;2.20;73.10;;;;;;4980022;28;20227;-85
2023/01/18 15:26:44;;;;;;;4.40;3.20;;;2.20;72.30;;;;;;4989831;28;20214;-86
2023/01/18 15:29:17;;;;;;;4.40;3.50;;;2.30;72.10;;;;;;4983265;28;20193;-85
2023/01/18 15:31:52;;;;;;;4.73;3.13;;;2.20;70.90;;;;;;4987407;28;20211;-86
2023/01/18 15:34:27;;;;;;;4.30;3.20;;;2.10;70.90;;;;;;4987600;28;20203;-87
2023/01/18 15:36:55;;;;;;;4.97;3.03;;;2.10;71.00;;;;;;4988937;28;20211;-85
2023/01/18 15:39:22;;;;;;;3.57;3.10;;;2.00;72.10;;;;;;4979776;28;20679;-85
2023/01/18 15:41:53;;;;;;;4.93;3.10;;;1.90;73.40;;;;;;4990189;28;20542;-86
2023/01/18 15:44:42;;;;;;;4.87;3.13;;;1.90;73.70;;;;;;4978577;28;20684;-87
2023/01/18 15:47:21;;;;;;;4.80;3.40;;;2.00;75.40;;;;;;4988442;28;20206;-88
2023/01/18 15:49:49;;;;;;;4.87;3.50;;;2.10;75.30;;;;;;4982977;28;20204;-87
2023/01/18 15:52:33;;;;;;;5.50;3.60;;;2.10;72.00;;;;;;4965742;28;20204;-88
2023/01/18 15:55:00;;;;;;;4.63;3.33;;;2.10;70.70;;;;;;4979420;28;20212;-87
2023/01/18 15:57:29;;;;;;;4.07;3.10;;;2.00;72.00;;;;;;4982990;28;20231;-87
2023/01/18 16:00:05;;;;;;;3.73;3.27;;;2.00;72.30;;;;;;4971335;28;20204;-87
2023/01/18 16:02:32;;;;;;;4.13;3.00;;;2.00;70.00;;;;;;4983808;28;20665;-86
2023/01/18 16:05:19;;;;;;;6.17;3.70;;;1.90;66.90;;;;;;4973651;28;20339;-86
2023/01/18 16:07:47;;;;;;;4.27;3.10;;;2.00;68.50;;;;;;4975978;28;20438;-88
2023/01/18 16:10:26;;;;;;;4.47;3.40;;;1.90;66.70;;;;;;4975165;28;20224;-87
2023/01/18 16:12:56;;;;;;;3.50;3.07;;;1.90;67.80;;;;;;4974558;28;20228;-87
2023/01/18 16:15:25;;;;;;;3.87;3.33;;;1.90;66.50;;;;;;4980447;28;20216;-89
2023/01/18 16:18:01;;;;;;;3.97;3.10;;;1.80;66.40;;;;;;4979116;28;20220;-85
2023/01/18 16:20:30;;;;;;;6.60;3.63;;;1.80;70.80;;;;;;4980437;28;20207;-86
2023/01/18 16:23:07;;;;;;;5.50;2.80;;;1.80;66.40;;;;;;4982919;28;20240;-87
2023/01/18 16:25:34;;;;;;;3.30;2.90;;;1.70;66.30;;;;;;4980864;28;20664;-86
2023/01/18 16:28:03;;;;;;;4.27;3.10;;;1.60;66.30;;;;;;4987583;28;20223;-85
2023/01/18 16:30:34;;;;;;;6.87;3.20;;;1.60;69.30;;;;;;4976057;28;20208;-85
2023/01/18 16:33:09;;;;;;;3.93;3.10;;;1.60;68.90;;;;;;4984041;28;20204;-85
2023/01/18 16:35:38;;;;;;;3.53;2.70;;;1.70;68.70;;;;;;4985834;28;20219;-86
2023/01/18 16:38:10;;;;;;;3.77;3.00;;;1.60;66.60;;;;;;4980194;28;20238;-85
2023/01/18 16:40:39;;;;;;;4.00;3.07;;;1.60;66.20;;;;;;4985981;28;20582;-85
2023/01/18 16:43:22;;;;;;;3.43;2.97;;;1.60;66.40;;;;;;4980045;28;20204;-85
2023/01/18 16:45:51;;;;;;;4.23;3.20;;;1.70;67.00;;;;;;4982256;28;20213;-86
2023/01/18 16:48:20;;;;;;;4.30;3.37;;;1.70;69.30;;;;;;4984044;28;20206;-85
2023/01/18 16:50:47;;;;;;;5.53;3.37;;;1.70;68.10;;;;;;4989984;28;20226;-88
2023/01/18 16:53:14;;;;;;;4.47;3.50;;;1.70;70.10;;;;;;4992519;28;20278;-86
2023/01/18 16:55:42;;;;;;;5.30;3.30;;;1.70;68.50;;;;;;4987553;28;20200;-85
2023/01/18 16:58:12;;;;;;;5.30;3.10;;;1.70;68.50;;;;;;4993103;28;20281;-85
2023/01/18 17:00:50;;;;;;;4.07;3.00;;;1.80;66.40;;;;;;4991949;28;20200;-85
2023/01/18 17:03:17;;;;;;;3.63;3.10;;;1.70;66.30;;;;;;4988434;28;20199;-84
2023/01/18 17:05:44;;;;;;;4.40;3.20;;;1.60;66.30;;;;;;4986165;28;20196;-87
2023/01/18 17:08:13;;;;;;;4.67;3.10;;;1.60;66.20;;;;;;4980643;28;20200;-82
2023/01/18 17:10:42;;;;;;;3.97;3.17;;;1.60;66.10;;;;;;4980489;28;20201;-87
2023/01/18 17:13:10;;;;;;;6.33;3.33;;;1.50;67.20;;;;;;4983453;28;20200;-85
2023/01/18 17:15:40;;;;;;;4.20;3.80;;;1.50;68.40;;;;;;4984470;28;20708;-87
2023/01/18 17:18:11;;;;;;;4.80;3.20;;;1.60;70.00;;;;;;4966922;28;20909;-89
2023/01/18 17:20:38;;;;;;;5.37;3.30;;;1.60;68.30;;;;;;4993000;28;20200;-89
2023/01/18 17:23:05;;;;;;;3.67;3.10;;;1.60;67.90;;;;;;4977883;28;20596;-87
2023/01/18 17:25:32;;;;;;;4.33;3.00;;;1.70;66.20;;;;;;4985958;28;20231;-85
2023/01/18 17:27:59;;;;;;;8.50;3.33;;;1.80;66.40;;;;;;4985555;28;20648;-87
2023/01/18 17:30:28;;;;;;;3.90;2.90;;;1.70;66.30;;;;;;4990203;28;20208;-85
2023/01/18 17:32:57;;;;;;;4.43;3.23;;;1.70;67.70;;;;;;4986383;28;20250;-86
2023/01/18 17:35:26;;;;;;;3.97;2.83;;;1.80;66.40;;;;;;4992229;28;20195;-87
2023/01/18 17:37:53;;;;;;;3.10;2.80;;;1.80;66.30;;;;;;4995410;28;20854;-86
2023/01/18 17:40:20;;;;;;;2.70;2.40;;;1.80;64.10;;;;;;4994160;28;20246;-87
2023/01/18 17:42:48;;;;;;;4.00;2.40;;;1.70;59.50;;;;;;4990660;28;20196;-87
2023/01/18 17:45:15;;;;;;;3.37;2.90;;;1.60;60.30;;;;;;4981095;28;20234;-86
2023/01/18 17:47:44;;;;;;;6.03;3.03;;;1.60;60.80;;;;;;4977692;28;20206;-86
2023/01/18 17:50:13;;;;;;;3.33;2.70;;;1.70;62.50;;;;;;4980966;28;20930;-87
2023/01/18 17:52:40;;;;;;;5.37;2.97;;;1.60;61.60;;;;;;4985631;28;20232;-85
2023/01/18 17:55:11;;;;;;;4.13;3.03;;;1.60;66.20;;;;;;4989490;28;20200;-89
2023/01/18 18:00:20;;;;;;;3.53;2.60;;;1.60;61.80;;;;;;4989147;28;20223;-91
2023/01/18 18:02:57;;;;;;;3.27;2.60;;;1.60;60.00;;;;;;4992622;28;21764;-89
2023/01/18 18:05:24;;;;;;;3.13;2.60;;;1.60;60.20;;;;;;4992466;28;20266;-89
2023/01/18 18:07:50;;;;;;;4.93;2.97;;;1.60;62.40;;;;;;4990461;28;20219;-89
2023/01/18 18:10:18;;;;;;;5.30;2.70;;;1.70;61.40;;;;;;4997043;28;20222;-88
2023/01/18 18:12:45;;;;;;;3.00;2.70;;;1.70;61.40;;;;;;4991483;28;20207;-89
2023/01/18 18:15:12;;;;;;;3.00;2.60;;;1.70;61.50;;;;;;4992801;28;20200;-90
2023/01/18 18:17:39;;;;;;;5.47;2.73;;;1.60;62.30;;;;;;4993792;28;20219;-88
2023/01/18 18:20:10;;;;;;;5.47;2.67;;;1.60;62.40;;;;;;4990790;28;20211;-88
2023/01/18 18:22:38;;;;;;;3.87;3.10;;;1.70;61.30;;;;;;5003307;23;20239;-89
2023/01/18 18:25:06;;;;;;;3.77;3.07;;;1.70;63.40;;;;;;5013866;28;20211;-87
2023/01/18 18:27:34;;;;;;;5.70;3.30;;;1.70;66.20;;;;;;5017206;28;20290;-87
2023/01/18 18:30:01;;;;;;;3.67;3.00;;;1.70;66.20;;;;;;4992109;28;20215;-89
2023/01/18 18:32:28;;;;;;;3.37;2.80;;;1.80;65.00;;;;;;5009704;28;20203;-88
2023/01/18 18:34:55;;;;;;;5.23;2.80;;;1.80;63.50;;;;;;5005467;28;20315;-88
2023/01/18 18:37:23;;;;;;;4.33;3.33;;;1.70;64.10;;;;;;5004929;28;20622;-87
2023/01/18 18:39:50;;;;;;;4.23;2.90;;;1.60;66.10;;;;;;5015658;28;20206;-88
2023/01/18 18:42:17;;;;;;;4.80;3.40;;;1.70;66.20;;;;;;5000446;28;20204;-90
2023/01/18 18:44:44;;;;;;;5.60;3.33;;;1.70;66.30;;;;;;5016967;28;20230;-86
2023/01/18 18:47:12;;;;;;;4.63;3.70;;;1.80;66.40;;;;;;4993535;28;20204;-84
2023/01/18 18:49:39;;;;;;;6.93;3.57;;;1.70;66.30;;;;;;5014270;28;20242;-88
2023/01/18 18:52:06;;;;;;;5.13;3.53;;;1.70;66.30;;;;;;5015946;28;20717;-88
2023/01/18 18:54:34;;;;;;;4.27;3.20;;;1.80;66.40;;;;;;5013737;28;20199;-87
2023/01/18 18:57:02;;;;;;;4.20;3.60;;;1.70;66.20;;;;;;5016369;28;20188;-88
2023/01/18 18:59:30;;;;;;;5.73;3.80;;;1.70;66.30;;;;;;5007146;28;20232;-90
2023/01/18 19:01:57;;;;;;;5.43;3.73;;;1.60;67.90;;;;;;5007824;28;20210;-88
2023/01/18 19:04:25;;;;;;;6.30;3.83;;;1.70;68.20;;;;;;5005263;28;20207;-87
2023/01/18 19:06:52;;;;;;;6.20;3.83;;;1.80;68.70;;;;;;5002621;28;20237;-87
2023/01/18 19:09:19;;;;;;;4.40;3.73;;;1.70;68.90;;;;;;5004047;28;20215;-87
2023/01/18 19:11:47;;;;;;;7.03;3.90;;;1.60;69.30;;;;;;4999639;28;20204;-87
2023/01/18 19:14:15;;;;;;;4.57;4.03;;;1.60;70.40;;;;;;5005268;28;20199;-87
2023/01/18 19:16:42;;;;;;;6.20;4.10;;;1.70;69.30;;;;;;5007093;28;20199;-89
2023/01/18 19:19:10;;;;;;;5.30;4.50;;;1.60;71.70;;;;;;5005862;28;20226;-89
2023/01/18 19:21:37;;;;;;;7.37;4.87;;;1.60;73.40;;;;;;5006088;28;20346;-90
2023/01/18 19:24:05;;;;;;;6.17;4.60;;;1.50;73.60;;;;;;5008241;28;20235;-88
2023/01/18 19:26:31;;;;;;;5.33;4.50;;;1.50;75.70;;;;;;5011987;28;20218;-90
2023/01/18 19:29:03;;;;;;;8.23;4.60;;;1.50;75.90;;;;;;5013366;28;20203;-87
2023/01/18 19:31:30;;;;;;;5.47;4.23;;;1.50;75.00;;;;;;5011914;28;20207;-88